KPRB

Details ICAO KPRB
Name PASO ROBLES MUNI
Region United States
Timezone America/Los_Angeles (UTC-7.0)
Plans Departing 28
Arriving 16
Stats Elevation 836 ft / 255 m (AMSL)
Location 35.672813° -120.626559°
Runways 2
Magnetic Variation 12.725° E
Sunrise 2018-05-26 12:51:52 UTC / 2018-05-26 05:51:52 Local
Sunset 2018-05-27 03:10:11 UTC / 2018-05-26 20:10:11 Local
Advertisement - Login to hide

Runways

ID Width Length Bearing (true) Bearing (mag) Surface Threshold Offset Overrun Length
01 150 ft / 46 m 6,016 ft / 1,834 m 28.54° 15.81° Asphalt 0 ft / 0 m 0 ft / 0 m
13 100 ft / 30 m 4,704 ft / 1,434 m 143.77° 131.04° Asphalt 0 ft / 0 m 0 ft / 0 m
19 150 ft / 46 m 6,016 ft / 1,834 m 208.54° 195.81° Asphalt 0 ft / 0 m 0 ft / 0 m
31 100 ft / 30 m 4,704 ft / 1,434 m 323.77° 311.04° Asphalt 0 ft / 0 m 0 ft / 0 m

Map

Weather


0- 5 10 15 20 25 30 35+ Temperature / ° C

Clouds and Precipitation
Forecast for 2018-05-27 00:00 UTC. Updated an hour ago

Ground ~20,000 ft ~40,000 ft Winds

METAR

KPRB 262353Z AUTO 22014KT 10SM CLR 21/09 A2998 RMK AO2 SLP148 T02110094 10233 20172 56010

TAF

KPRB 262322Z 2700/2724 22015KT P6SM SKC FM270100 32015KT P6SM SCT040 FM270300 30008KT P6SM SKC FM271200 VRB03KT P6SM BKN008 FM271600 VRB03KT P6SM SKC FM272000 22008KT P6SM SKC

Frequencies

Recorded 132.17 MHz ASOS
Unicom 123.00 MHz CTAF/UNICOM
Warning: Do not use this data for real-world aviation or navigation. No guarantee of current accuracy is given.